sensor_id;sensor_type;location;lat;lon;timestamp;P1;durP1;ratioP1;P2;durP2;ratioP2
57697;SDS011;43531;52.152;6.366;2023-02-13T00:00:23;28.05;;;20.17;;
57697;SDS011;43531;52.152;6.366;2023-02-13T00:00:55;30.55;;;19.75;;
57697;SDS011;43531;52.152;6.366;2023-02-13T00:01:27;26.52;;;18.58;;
57697;SDS011;43531;52.152;6.366;2023-02-13T00:01:59;27.63;;;19.85;;
57697;SDS011;43531;52.152;6.366;2023-02-13T00:02:31;34.05;;;22.77;;
57697;SDS011;43531;52.152;6.366;2023-02-13T00:03:03;31.35;;;20.77;;
57697;SDS011;43531;52.152;6.366;2023-02-13T00:03:35;32.97;;;20.73;;
57697;SDS011;43531;52.152;6.366;2023-02-13T00:04:06;28.92;;;18.92;;
57697;SDS011;43531;52.152;6.366;2023-02-13T00:04:38;28.05;;;19.42;;
57697;SDS011;43531;52.152;6.366;2023-02-13T00:05:10;27.65;;;19.33;;
57697;SDS011;43531;52.152;6.366;2023-02-13T00:05:41;29.23;;;18.52;;
57697;SDS011;43531;52.152;6.366;2023-02-13T00:06:13;29.98;;;20.65;;
57697;SDS011;43531;52.152;6.366;2023-02-13T00:06:45;27.95;;;19.02;;
57697;SDS011;43531;52.152;6.366;2023-02-13T00:07:18;28.35;;;20.52;;
57697;SDS011;43531;52.152;6.366;2023-02-13T00:07:49;28.15;;;20.65;;
57697;SDS011;43531;52.152;6.366;2023-02-13T00:08:21;31.85;;;20.80;;
57697;SDS011;43531;52.152;6.366;2023-02-13T00:08:52;30.35;;;19.05;;
57697;SDS011;43531;52.152;6.366;2023-02-13T00:09:24;30.65;;;19.42;;
57697;SDS011;43531;52.152;6.366;2023-02-13T00:09:56;26.88;;;18.48;;
57697;SDS011;43531;52.152;6.366;2023-02-13T00:10:27;28.02;;;19.73;;
57697;SDS011;43531;52.152;6.366;2023-02-13T00:10:59;26.83;;;18.73;;
57697;SDS011;43531;52.152;6.366;2023-02-13T00:11:30;28.05;;;18.83;;
57697;SDS011;43531;52.152;6.366;2023-02-13T00:12:02;25.65;;;18.27;;
57697;SDS011;43531;52.152;6.366;2023-02-13T00:12:35;30.33;;;20.77;;
57697;SDS011;43531;52.152;6.366;2023-02-13T00:13:06;30.92;;;19.63;;
57697;SDS011;43531;52.152;6.366;2023-02-13T00:13:38;31.58;;;20.15;;
57697;SDS011;43531;52.152;6.366;2023-02-13T00:14:10;32.92;;;21.00;;
57697;SDS011;43531;52.152;6.366;2023-02-13T00:14:42;30.25;;;20.63;;
57697;SDS011;43531;52.152;6.366;2023-02-13T00:15:13;32.15;;;21.58;;
57697;SDS011;43531;52.152;6.366;2023-02-13T00:15:45;29.17;;;19.50;;
57697;SDS011;43531;52.152;6.366;2023-02-13T00:16:25;26.88;;;17.83;;
57697;SDS011;43531;52.152;6.366;2023-02-13T00:16:57;27.50;;;18.65;;
57697;SDS011;43531;52.152;6.366;2023-02-13T00:17:28;30.27;;;18.63;;
57697;SDS011;43531;52.152;6.366;2023-02-13T00:18:00;27.80;;;18.50;;
57697;SDS011;43531;52.152;6.366;2023-02-13T00:18:34;25.02;;;17.98;;
57697;SDS011;43531;52.152;6.366;2023-02-13T00:19:06;28.77;;;19.67;;
57697;SDS011;43531;52.152;6.366;2023-02-13T00:19:38;25.17;;;17.35;;
57697;SDS011;43531;52.152;6.366;2023-02-13T00:20:10;27.08;;;18.55;;
57697;SDS011;43531;52.152;6.366;2023-02-13T00:20:42;30.52;;;18.02;;
57697;SDS011;43531;52.152;6.366;2023-02-13T00:21:14;26.13;;;19.40;;
57697;SDS011;43531;52.152;6.366;2023-02-13T00:21:45;24.98;;;18.65;;
57697;SDS011;43531;52.152;6.366;2023-02-13T00:22:17;29.00;;;17.75;;
57697;SDS011;43531;52.152;6.366;2023-02-13T00:22:49;26.67;;;18.40;;
57697;SDS011;43531;52.152;6.366;2023-02-13T00:23:20;26.75;;;18.58;;
57697;SDS011;43531;52.152;6.366;2023-02-13T00:23:52;29.83;;;18.75;;
57697;SDS011;43531;52.152;6.366;2023-02-13T00:24:23;28.60;;;17.90;;
57697;SDS011;43531;52.152;6.366;2023-02-13T00:24:55;26.17;;;18.85;;
57697;SDS011;43531;52.152;6.366;2023-02-13T00:25:27;28.17;;;18.38;;
57697;SDS011;43531;52.152;6.366;2023-02-13T00:25:58;29.15;;;19.00;;
57697;SDS011;43531;52.152;6.366;2023-02-13T00:26:30;27.55;;;17.77;;
57697;SDS011;43531;52.152;6.366;2023-02-13T00:27:02;28.55;;;18.90;;
57697;SDS011;43531;52.152;6.366;2023-02-13T00:27:34;26.42;;;19.25;;
57697;SDS011;43531;52.152;6.366;2023-02-13T00:28:05;30.67;;;17.63;;
57697;SDS011;43531;52.152;6.366;2023-02-13T00:28:37;29.02;;;18.83;;
57697;SDS011;43531;52.152;6.366;2023-02-13T00:29:11;30.38;;;19.23;;
57697;SDS011;43531;52.152;6.366;2023-02-13T00:29:42;31.83;;;19.75;;
57697;SDS011;43531;52.152;6.366;2023-02-13T00:30:14;29.52;;;19.63;;
57697;SDS011;43531;52.152;6.366;2023-02-13T00:30:46;29.90;;;19.83;;
57697;SDS011;43531;52.152;6.366;2023-02-13T00:31:19;30.10;;;18.90;;
57697;SDS011;43531;52.152;6.366;2023-02-13T00:31:52;28.70;;;18.88;;
57697;SDS011;43531;52.152;6.366;2023-02-13T00:32:24;29.00;;;18.90;;
57697;SDS011;43531;52.152;6.366;2023-02-13T00:32:58;26.75;;;18.45;;
57697;SDS011;43531;52.152;6.366;2023-02-13T00:33:29;25.95;;;18.13;;
57697;SDS011;43531;52.152;6.366;2023-02-13T00:34:01;26.65;;;18.45;;
57697;SDS011;43531;52.152;6.366;2023-02-13T00:34:33;27.65;;;19.48;;
57697;SDS011;43531;52.152;6.366;2023-02-13T00:35:06;29.15;;;18.42;;
57697;SDS011;43531;52.152;6.366;2023-02-13T00:35:38;28.95;;;19.05;;
57697;SDS011;43531;52.152;6.366;2023-02-13T00:36:13;28.55;;;18.35;;
57697;SDS011;43531;52.152;6.366;2023-02-13T00:36:48;29.15;;;18.88;;
57697;SDS011;43531;52.152;6.366;2023-02-13T00:37:20;27.23;;;18.75;;
57697;SDS011;43531;52.152;6.366;2023-02-13T00:37:51;34.10;;;20.25;;
57697;SDS011;43531;52.152;6.366;2023-02-13T00:38:28;32.65;;;20.02;;
57697;SDS011;43531;52.152;6.366;2023-02-13T00:39:00;29.15;;;18.67;;
57697;SDS011;43531;52.152;6.366;2023-02-13T00:39:32;29.48;;;19.92;;
57697;SDS011;43531;52.152;6.366;2023-02-13T00:40:03;26.77;;;17.50;;
57697;SDS011;43531;52.152;6.366;2023-02-13T00:40:36;27.13;;;18.83;;
57697;SDS011;43531;52.152;6.366;2023-02-13T00:41:07;31.77;;;19.80;;
57697;SDS011;43531;52.152;6.366;2023-02-13T00:41:39;30.40;;;19.45;;
57697;SDS011;43531;52.152;6.366;2023-02-13T00:42:12;30.55;;;19.60;;
57697;SDS011;43531;52.152;6.366;2023-02-13T00:42:44;29.05;;;19.23;;
57697;SDS011;43531;52.152;6.366;2023-02-13T00:43:16;27.02;;;18.42;;
57697;SDS011;43531;52.152;6.366;2023-02-13T00:43:49;29.63;;;19.33;;
57697;SDS011;43531;52.152;6.366;2023-02-13T00:44:21;30.55;;;19.63;;
57697;SDS011;43531;52.152;6.366;2023-02-13T00:44:52;30.55;;;19.98;;
57697;SDS011;43531;52.152;6.366;2023-02-13T00:45:24;30.17;;;19.45;;
57697;SDS011;43531;52.152;6.366;2023-02-13T00:45:56;29.35;;;19.38;;
57697;SDS011;43531;52.152;6.366;2023-02-13T00:46:31;29.48;;;18.90;;
57697;SDS011;43531;52.152;6.366;2023-02-13T00:47:02;29.67;;;19.92;;
57697;SDS011;43531;52.152;6.366;2023-02-13T00:47:34;27.35;;;18.83;;
57697;SDS011;43531;52.152;6.366;2023-02-13T00:48:06;30.17;;;19.80;;
57697;SDS011;43531;52.152;6.366;2023-02-13T00:48:39;27.75;;;18.40;;
57697;SDS011;43531;52.152;6.366;2023-02-13T00:49:10;25.38;;;18.55;;
57697;SDS011;43531;52.152;6.366;2023-02-13T00:49:42;30.67;;;20.17;;
57697;SDS011;43531;52.152;6.366;2023-02-13T00:50:14;30.40;;;19.58;;
57697;SDS011;43531;52.152;6.366;2023-02-13T00:50:46;29.45;;;19.10;;
57697;SDS011;43531;52.152;6.366;2023-02-13T00:51:18;27.27;;;19.02;;
57697;SDS011;43531;52.152;6.366;2023-02-13T00:51:49;29.67;;;18.48;;
57697;SDS011;43531;52.152;6.366;2023-02-13T00:52:21;26.65;;;18.83;;
57697;SDS011;43531;52.152;6.366;2023-02-13T00:52:53;28.05;;;19.50;;
57697;SDS011;43531;52.152;6.366;2023-02-13T00:53:25;36.30;;;20.77;;
57697;SDS011;43531;52.152;6.366;2023-02-13T00:53:57;32.67;;;21.40;;
57697;SDS011;43531;52.152;6.366;2023-02-13T00:54:28;29.48;;;20.85;;
57697;SDS011;43531;52.152;6.366;2023-02-13T00:55:00;31.52;;;20.02;;
57697;SDS011;43531;52.152;6.366;2023-02-13T00:55:31;27.60;;;18.85;;
57697;SDS011;43531;52.152;6.366;2023-02-13T00:56:04;28.25;;;18.45;;
57697;SDS011;43531;52.152;6.366;2023-02-13T00:56:37;28.95;;;18.40;;
57697;SDS011;43531;52.152;6.366;2023-02-13T00:57:09;29.75;;;20.33;;
57697;SDS011;43531;52.152;6.366;2023-02-13T00:57:41;28.77;;;19.00;;
57697;SDS011;43531;52.152;6.366;2023-02-13T00:58:15;31.42;;;19.15;;
57697;SDS011;43531;52.152;6.366;2023-02-13T00:58:47;28.65;;;19.02;;
57697;SDS011;43531;52.152;6.366;2023-02-13T00:59:19;32.53;;;19.42;;
57697;SDS011;43531;52.152;6.366;2023-02-13T00:59:51;27.45;;;19.63;;
57697;SDS011;43531;52.152;6.366;2023-02-13T01:00:22;27.73;;;19.30;;
57697;SDS011;43531;52.152;6.366;2023-02-13T01:00:54;25.98;;;17.88;;
57697;SDS011;43531;52.152;6.366;2023-02-13T01:01:27;30.13;;;19.65;;
57697;SDS011;43531;52.152;6.366;2023-02-13T01:01:59;26.02;;;17.75;;
57697;SDS011;43531;52.152;6.366;2023-02-13T01:02:31;28.73;;;19.45;;
57697;SDS011;43531;52.152;6.366;2023-02-13T01:03:06;29.85;;;19.23;;
57697;SDS011;43531;52.152;6.366;2023-02-13T01:03:38;26.25;;;17.10;;
57697;SDS011;43531;52.152;6.366;2023-02-13T01:04:10;27.17;;;18.73;;
57697;SDS011;43531;52.152;6.366;2023-02-13T01:04:41;29.33;;;19.60;;
57697;SDS011;43531;52.152;6.366;2023-02-13T01:05:13;25.60;;;18.42;;
57697;SDS011;43531;52.152;6.366;2023-02-13T01:05:45;29.05;;;19.45;;
57697;SDS011;43531;52.152;6.366;2023-02-13T01:06:17;32.83;;;20.13;;
57697;SDS011;43531;52.152;6.366;2023-02-13T01:06:49;30.42;;;20.85;;
57697;SDS011;43531;52.152;6.366;2023-02-13T01:07:20;26.63;;;17.63;;
57697;SDS011;43531;52.152;6.366;2023-02-13T01:07:55;30.58;;;19.50;;
57697;SDS011;43531;52.152;6.366;2023-02-13T01:08:26;31.17;;;18.13;;
57697;SDS011;43531;52.152;6.366;2023-02-13T01:08:58;29.13;;;19.33;;
57697;SDS011;43531;52.152;6.366;2023-02-13T01:09:30;31.35;;;19.42;;
57697;SDS011;43531;52.152;6.366;2023-02-13T01:10:02;28.45;;;17.55;;
57697;SDS011;43531;52.152;6.366;2023-02-13T01:10:33;28.08;;;18.77;;
57697;SDS011;43531;52.152;6.366;2023-02-13T01:11:05;27.15;;;18.30;;
57697;SDS011;43531;52.152;6.366;2023-02-13T01:11:37;26.10;;;17.48;;
57697;SDS011;43531;52.152;6.366;2023-02-13T01:12:09;30.55;;;19.73;;
57697;SDS011;43531;52.152;6.366;2023-02-13T01:12:41;24.60;;;18.30;;
57697;SDS011;43531;52.152;6.366;2023-02-13T01:13:13;28.10;;;19.10;;
57697;SDS011;43531;52.152;6.366;2023-02-13T01:13:45;30.23;;;19.55;;
57697;SDS011;43531;52.152;6.366;2023-02-13T01:14:17;28.08;;;18.38;;
57697;SDS011;43531;52.152;6.366;2023-02-13T01:14:50;28.70;;;19.25;;
57697;SDS011;43531;52.152;6.366;2023-02-13T01:15:23;27.20;;;18.55;;
57697;SDS011;43531;52.152;6.366;2023-02-13T01:15:55;29.10;;;19.00;;
57697;SDS011;43531;52.152;6.366;2023-02-13T01:16:26;31.05;;;19.90;;
57697;SDS011;43531;52.152;6.366;2023-02-13T01:16:59;30.25;;;18.92;;
57697;SDS011;43531;52.152;6.366;2023-02-13T01:17:30;26.80;;;19.15;;
57697;SDS011;43531;52.152;6.366;2023-02-13T01:18:02;32.35;;;19.42;;
57697;SDS011;43531;52.152;6.366;2023-02-13T01:18:34;28.52;;;18.88;;
57697;SDS011;43531;52.152;6.366;2023-02-13T01:19:05;29.38;;;20.58;;
57697;SDS011;43531;52.152;6.366;2023-02-13T01:19:39;28.33;;;18.88;;
57697;SDS011;43531;52.152;6.366;2023-02-13T01:20:11;30.58;;;19.73;;
57697;SDS011;43531;52.152;6.366;2023-02-13T01:20:44;27.23;;;17.88;;
57697;SDS011;43531;52.152;6.366;2023-02-13T01:21:17;25.05;;;17.63;;
57697;SDS011;43531;52.152;6.366;2023-02-13T01:21:50;28.92;;;18.77;;
57697;SDS011;43531;52.152;6.366;2023-02-13T01:22:22;28.98;;;19.13;;
57697;SDS011;43531;52.152;6.366;2023-02-13T01:22:54;27.73;;;19.38;;
57697;SDS011;43531;52.152;6.366;2023-02-13T01:23:28;29.65;;;19.13;;
57697;SDS011;43531;52.152;6.366;2023-02-13T01:24:04;30.52;;;19.15;;
57697;SDS011;43531;52.152;6.366;2023-02-13T01:24:36;27.48;;;17.50;;
57697;SDS011;43531;52.152;6.366;2023-02-13T01:25:07;27.80;;;18.85;;
57697;SDS011;43531;52.152;6.366;2023-02-13T01:25:40;27.63;;;18.55;;
57697;SDS011;43531;52.152;6.366;2023-02-13T01:26:14;30.67;;;19.08;;
57697;SDS011;43531;52.152;6.366;2023-02-13T01:26:47;30.83;;;19.75;;
57697;SDS011;43531;52.152;6.366;2023-02-13T01:27:19;33.03;;;20.63;;
57697;SDS011;43531;52.152;6.366;2023-02-13T01:27:51;27.63;;;18.98;;
57697;SDS011;43531;52.152;6.366;2023-02-13T01:28:22;26.50;;;18.30;;
57697;SDS011;43531;52.152;6.366;2023-02-13T01:28:54;30.25;;;20.70;;
57697;SDS011;43531;52.152;6.366;2023-02-13T01:29:28;30.30;;;18.83;;
57697;SDS011;43531;52.152;6.366;2023-02-13T01:30:00;31.70;;;19.95;;
57697;SDS011;43531;52.152;6.366;2023-02-13T01:30:32;31.45;;;20.30;;
57697;SDS011;43531;52.152;6.366;2023-02-13T01:31:04;28.20;;;18.77;;
57697;SDS011;43531;52.152;6.366;2023-02-13T01:31:35;31.25;;;20.05;;
57697;SDS011;43531;52.152;6.366;2023-02-13T01:32:07;30.80;;;18.27;;
57697;SDS011;43531;52.152;6.366;2023-02-13T01:32:39;27.35;;;16.95;;
57697;SDS011;43531;52.152;6.366;2023-02-13T01:33:12;28.55;;;19.08;;
57697;SDS011;43531;52.152;6.366;2023-02-13T01:33:43;29.15;;;18.83;;
57697;SDS011;43531;52.152;6.366;2023-02-13T01:34:16;28.92;;;18.23;;
57697;SDS011;43531;52.152;6.366;2023-02-13T01:34:47;28.48;;;19.52;;
57697;SDS011;43531;52.152;6.366;2023-02-13T01:35:19;30.33;;;18.60;;
57697;SDS011;43531;52.152;6.366;2023-02-13T01:35:50;27.25;;;20.23;;
57697;SDS011;43531;52.152;6.366;2023-02-13T01:36:22;30.58;;;19.30;;
57697;SDS011;43531;52.152;6.366;2023-02-13T01:36:54;29.15;;;18.40;;
57697;SDS011;43531;52.152;6.366;2023-02-13T01:37:28;26.42;;;18.00;;
57697;SDS011;43531;52.152;6.366;2023-02-13T01:37:59;28.92;;;18.73;;
57697;SDS011;43531;52.152;6.366;2023-02-13T01:38:31;27.88;;;18.20;;
57697;SDS011;43531;52.152;6.366;2023-02-13T01:39:03;28.98;;;19.67;;
57697;SDS011;43531;52.152;6.366;2023-02-13T01:39:34;29.20;;;19.17;;
57697;SDS011;43531;52.152;6.366;2023-02-13T01:40:07;31.00;;;20.48;;
57697;SDS011;43531;52.152;6.366;2023-02-13T01:40:47;30.35;;;19.23;;
57697;SDS011;43531;52.152;6.366;2023-02-13T01:41:20;27.08;;;18.80;;
57697;SDS011;43531;52.152;6.366;2023-02-13T01:41:52;27.35;;;18.58;;
57697;SDS011;43531;52.152;6.366;2023-02-13T01:42:25;28.63;;;19.35;;
57697;SDS011;43531;52.152;6.366;2023-02-13T01:42:57;27.70;;;18.13;;
57697;SDS011;43531;52.152;6.366;2023-02-13T01:43:45;28.92;;;19.55;;
57697;SDS011;43531;52.152;6.366;2023-02-13T01:45:25;33.70;;;18.38;;
57697;SDS011;43531;52.152;6.366;2023-02-13T01:45:58;28.73;;;16.15;;
57697;SDS011;43531;52.152;6.366;2023-02-13T01:46:34;24.70;;;15.52;;
57697;SDS011;43531;52.152;6.366;2023-02-13T01:47:09;26.95;;;15.38;;
57697;SDS011;43531;52.152;6.366;2023-02-13T01:47:44;23.98;;;14.48;;
57697;SDS011;43531;52.152;6.366;2023-02-13T01:48:18;31.67;;;17.20;;
57697;SDS011;43531;52.152;6.366;2023-02-13T01:48:51;26.92;;;15.00;;
57697;SDS011;43531;52.152;6.366;2023-02-13T01:49:25;27.25;;;16.70;;
57697;SDS011;43531;52.152;6.366;2023-02-13T01:50:02;28.13;;;17.02;;
57697;SDS011;43531;52.152;6.366;2023-02-13T01:50:43;37.15;;;16.45;;
57697;SDS011;43531;52.152;6.366;2023-02-13T01:51:19;30.60;;;16.77;;
57697;SDS011;43531;52.152;6.366;2023-02-13T01:51:57;30.23;;;17.63;;
57697;SDS011;43531;52.152;6.366;2023-02-13T01:52:29;27.25;;;17.52;;
57697;SDS011;43531;52.152;6.366;2023-02-13T01:53:36;28.15;;;14.52;;
57697;SDS011;43531;52.152;6.366;2023-02-13T01:54:07;25.55;;;14.48;;
57697;SDS011;43531;52.152;6.366;2023-02-13T01:54:44;31.20;;;16.58;;
57697;SDS011;43531;52.152;6.366;2023-02-13T01:55:17;27.58;;;16.83;;
57697;SDS011;43531;52.152;6.366;2023-02-13T01:55:54;29.80;;;16.90;;
57697;SDS011;43531;52.152;6.366;2023-02-13T01:57:11;28.98;;;17.60;;
57697;SDS011;43531;52.152;6.366;2023-02-13T01:57:47;31.98;;;18.10;;
57697;SDS011;43531;52.152;6.366;2023-02-13T01:58:25;27.27;;;16.05;;
57697;SDS011;43531;52.152;6.366;2023-02-13T01:59:00;28.70;;;17.85;;
57697;SDS011;43531;52.152;6.366;2023-02-13T01:59:40;30.15;;;16.63;;
57697;SDS011;43531;52.152;6.366;2023-02-13T02:00:20;29.95;;;16.70;;
57697;SDS011;43531;52.152;6.366;2023-02-13T02:00:53;29.85;;;17.65;;
57697;SDS011;43531;52.152;6.366;2023-02-13T02:01:25;28.50;;;15.75;;
57697;SDS011;43531;52.152;6.366;2023-02-13T02:01:58;22.95;;;15.00;;
57697;SDS011;43531;52.152;6.366;2023-02-13T02:02:32;24.30;;;16.17;;
57697;SDS011;43531;52.152;6.366;2023-02-13T02:03:12;24.70;;;14.57;;
57697;SDS011;43531;52.152;6.366;2023-02-13T02:03:46;26.35;;;16.00;;
57697;SDS011;43531;52.152;6.366;2023-02-13T02:04:24;28.77;;;17.10;;
57697;SDS011;43531;52.152;6.366;2023-02-13T02:04:58;29.35;;;16.85;;
57697;SDS011;43531;52.152;6.366;2023-02-13T02:05:32;30.20;;;16.00;;
57697;SDS011;43531;52.152;6.366;2023-02-13T02:06:06;35.40;;;16.35;;
57697;SDS011;43531;52.152;6.366;2023-02-13T02:06:41;24.83;;;15.48;;
57697;SDS011;43531;52.152;6.366;2023-02-13T02:07:20;24.85;;;15.15;;
57697;SDS011;43531;52.152;6.366;2023-02-13T02:07:55;31.73;;;16.75;;
57697;SDS011;43531;52.152;6.366;2023-02-13T02:08:29;23.77;;;15.25;;
57697;SDS011;43531;52.152;6.366;2023-02-13T02:09:03;24.08;;;15.40;;
57697;SDS011;43531;52.152;6.366;2023-02-13T02:09:37;25.73;;;14.40;;
57697;SDS011;43531;52.152;6.366;2023-02-13T02:10:13;26.90;;;15.05;;
57697;SDS011;43531;52.152;6.366;2023-02-13T02:10:46;32.33;;;15.77;;
57697;SDS011;43531;52.152;6.366;2023-02-13T02:13:13;26.60;;;14.48;;
57697;SDS011;43531;52.152;6.366;2023-02-13T02:13:48;28.60;;;16.17;;
57697;SDS011;43531;52.152;6.366;2023-02-13T02:14:31;27.25;;;14.88;;
57697;SDS011;43531;52.152;6.366;2023-02-13T02:15:04;26.52;;;15.45;;
57697;SDS011;43531;52.152;6.366;2023-02-13T02:15:37;28.05;;;16.13;;
57697;SDS011;43531;52.152;6.366;2023-02-13T02:16:09;26.90;;;15.13;;
57697;SDS011;43531;52.152;6.366;2023-02-13T02:16:41;31.08;;;16.05;;
57697;SDS011;43531;52.152;6.366;2023-02-13T02:17:13;23.55;;;15.10;;
57697;SDS011;43531;52.152;6.366;2023-02-13T02:17:44;28.27;;;15.65;;
57697;SDS011;43531;52.152;6.366;2023-02-13T02:18:20;25.10;;;15.50;;
57697;SDS011;43531;52.152;6.366;2023-02-13T02:18:52;30.38;;;15.55;;
57697;SDS011;43531;52.152;6.366;2023-02-13T02:23:30;26.10;;;15.35;;
57697;SDS011;43531;52.152;6.366;2023-02-13T02:27:26;29.92;;;16.75;;
57697;SDS011;43531;52.152;6.366;2023-02-13T02:28:19;23.40;;;13.73;;
57697;SDS011;43531;52.152;6.366;2023-02-13T02:34:33;26.58;;;14.30;;
57697;SDS011;43531;52.152;6.366;2023-02-13T02:35:18;27.23;;;15.05;;
57697;SDS011;43531;52.152;6.366;2023-02-13T02:39:05;27.55;;;15.43;;
57697;SDS011;43531;52.152;6.366;2023-02-13T02:40:45;31.25;;;15.38;;
57697;SDS011;43531;52.152;6.366;2023-02-13T02:43:17;24.83;;;15.25;;
57697;SDS011;43531;52.152;6.366;2023-02-13T02:44:21;31.08;;;15.13;;
57697;SDS011;43531;52.152;6.366;2023-02-13T02:45:07;28.58;;;16.27;;
57697;SDS011;43531;52.152;6.366;2023-02-13T02:47:51;26.33;;;15.77;;
57697;SDS011;43531;52.152;6.366;2023-02-13T02:50:40;25.90;;;14.98;;
57697;SDS011;43531;52.152;6.366;2023-02-13T02:51:06;28.08;;;13.70;;
57697;SDS011;43531;52.152;6.366;2023-02-13T02:52:04;25.33;;;14.75;;
57697;SDS011;43531;52.152;6.366;2023-02-13T02:55:34;30.98;;;15.45;;
57697;SDS011;43531;52.152;6.366;2023-02-13T02:56:33;23.40;;;13.82;;
57697;SDS011;43531;52.152;6.366;2023-02-13T02:57:09;23.20;;;13.98;;
57697;SDS011;43531;52.152;6.366;2023-02-13T02:57:46;28.42;;;15.77;;
57697;SDS011;43531;52.152;6.366;2023-02-13T02:59:43;22.90;;;13.32;;
57697;SDS011;43531;52.152;6.366;2023-02-13T03:00:36;26.35;;;14.85;;
57697;SDS011;43531;52.152;6.366;2023-02-13T03:01:31;29.20;;;14.95;;
57697;SDS011;43531;52.152;6.366;2023-02-13T03:02:32;27.70;;;15.73;;
57697;SDS011;43531;52.152;6.366;2023-02-13T03:03:24;30.08;;;15.80;;
57697;SDS011;43531;52.152;6.366;2023-02-13T03:04:17;26.05;;;13.75;;
57697;SDS011;43531;52.152;6.366;2023-02-13T03:05:14;24.77;;;13.27;;
57697;SDS011;43531;52.152;6.366;2023-02-13T03:06:12;30.05;;;15.48;;
57697;SDS011;43531;52.152;6.366;2023-02-13T03:07:12;22.55;;;14.15;;
57697;SDS011;43531;52.152;6.366;2023-02-13T03:07:46;27.67;;;16.02;;
57697;SDS011;43531;52.152;6.366;2023-02-13T03:08:20;26.52;;;14.82;;
57697;SDS011;43531;52.152;6.366;2023-02-13T03:09:29;34.08;;;18.75;;
57697;SDS011;43531;52.152;6.366;2023-02-13T03:10:24;29.17;;;14.55;;
57697;SDS011;43531;52.152;6.366;2023-02-13T03:11:17;34.03;;;14.52;;
57697;SDS011;43531;52.152;6.366;2023-02-13T03:12:07;28.77;;;14.70;;
57697;SDS011;43531;52.152;6.366;2023-02-13T03:13:08;30.80;;;15.93;;
57697;SDS011;43531;52.152;6.366;2023-02-13T03:13:52;28.08;;;14.90;;
57697;SDS011;43531;52.152;6.366;2023-02-13T03:14:25;28.65;;;14.80;;
57697;SDS011;43531;52.152;6.366;2023-02-13T03:14:57;28.55;;;15.20;;
57697;SDS011;43531;52.152;6.366;2023-02-13T03:15:29;28.67;;;17.08;;
57697;SDS011;43531;52.152;6.366;2023-02-13T03:16:02;31.88;;;16.38;;
57697;SDS011;43531;52.152;6.366;2023-02-13T03:16:52;28.90;;;15.55;;
57697;SDS011;43531;52.152;6.366;2023-02-13T03:18:03;24.65;;;14.90;;
57697;SDS011;43531;52.152;6.366;2023-02-13T03:18:54;30.42;;;16.55;;
57697;SDS011;43531;52.152;6.366;2023-02-13T03:20:21;24.48;;;15.38;;
57697;SDS011;43531;52.152;6.366;2023-02-13T03:21:09;29.83;;;15.13;;
57697;SDS011;43531;52.152;6.366;2023-02-13T03:22:07;25.85;;;14.98;;
57697;SDS011;43531;52.152;6.366;2023-02-13T03:24:49;24.88;;;13.07;;
57697;SDS011;43531;52.152;6.366;2023-02-13T03:25:45;24.98;;;13.98;;
57697;SDS011;43531;52.152;6.366;2023-02-13T03:28:24;28.88;;;15.95;;
57697;SDS011;43531;52.152;6.366;2023-02-13T03:29:19;31.23;;;15.45;;
57697;SDS011;43531;52.152;6.366;2023-02-13T03:30:18;26.90;;;14.02;;
57697;SDS011;43531;52.152;6.366;2023-02-13T03:32:01;30.75;;;17.58;;
57697;SDS011;43531;52.152;6.366;2023-02-13T03:34:06;27.77;;;16.05;;
57697;SDS011;43531;52.152;6.366;2023-02-13T03:34:41;32.70;;;16.95;;
57697;SDS011;43531;52.152;6.366;2023-02-13T03:36:41;30.10;;;16.90;;
57697;SDS011;43531;52.152;6.366;2023-02-13T03:37:35;27.92;;;15.85;;
57697;SDS011;43531;52.152;6.366;2023-02-13T03:38:32;26.00;;;14.90;;
57697;SDS011;43531;52.152;6.366;2023-02-13T03:39:21;26.10;;;16.17;;
57697;SDS011;43531;52.152;6.366;2023-02-13T03:40:41;24.88;;;15.27;;
57697;SDS011;43531;52.152;6.366;2023-02-13T03:41:39;28.50;;;17.00;;
57697;SDS011;43531;52.152;6.366;2023-02-13T03:43:12;28.13;;;16.95;;
57697;SDS011;43531;52.152;6.366;2023-02-13T03:44:02;30.38;;;15.07;;
57697;SDS011;43531;52.152;6.366;2023-02-13T03:44:59;34.80;;;16.30;;
57697;SDS011;43531;52.152;6.366;2023-02-13T03:45:49;27.48;;;15.68;;
57697;SDS011;43531;52.152;6.366;2023-02-13T03:46:24;28.48;;;17.02;;
57697;SDS011;43531;52.152;6.366;2023-02-13T03:46:58;28.25;;;17.65;;
57697;SDS011;43531;52.152;6.366;2023-02-13T03:47:31;35.90;;;17.05;;
57697;SDS011;43531;52.152;6.366;2023-02-13T03:48:03;30.13;;;17.08;;
57697;SDS011;43531;52.152;6.366;2023-02-13T03:49:02;30.08;;;16.38;;
57697;SDS011;43531;52.152;6.366;2023-02-13T03:50:37;28.15;;;15.57;;
57697;SDS011;43531;52.152;6.366;2023-02-13T03:51:13;28.58;;;14.95;;
57697;SDS011;43531;52.152;6.366;2023-02-13T03:51:58;27.10;;;16.38;;
57697;SDS011;43531;52.152;6.366;2023-02-13T03:53:19;30.95;;;16.40;;
57697;SDS011;43531;52.152;6.366;2023-02-13T03:53:53;27.98;;;16.80;;
57697;SDS011;43531;52.152;6.366;2023-02-13T03:55:37;26.95;;;15.48;;
57697;SDS011;43531;52.152;6.366;2023-02-13T03:56:29;30.02;;;16.50;;
57697;SDS011;43531;52.152;6.366;2023-02-13T03:57:21;34.15;;;17.85;;
57697;SDS011;43531;52.152;6.366;2023-02-13T03:59:03;31.95;;;14.95;;
57697;SDS011;43531;52.152;6.366;2023-02-13T03:59:49;32.60;;;17.40;;
57697;SDS011;43531;52.152;6.366;2023-02-13T04:00:20;28.30;;;16.70;;
57697;SDS011;43531;52.152;6.366;2023-02-13T04:00:53;33.90;;;17.63;;
57697;SDS011;43531;52.152;6.366;2023-02-13T04:01:27;30.67;;;16.35;;
57697;SDS011;43531;52.152;6.366;2023-02-13T04:02:53;29.50;;;17.15;;
57697;SDS011;43531;52.152;6.366;2023-02-13T04:05:35;26.95;;;15.75;;
57697;SDS011;43531;52.152;6.366;2023-02-13T04:06:31;31.33;;;17.50;;
57697;SDS011;43531;52.152;6.366;2023-02-13T04:07:05;35.95;;;16.33;;
57697;SDS011;43531;52.152;6.366;2023-02-13T04:07:39;27.67;;;15.85;;
57697;SDS011;43531;52.152;6.366;2023-02-13T04:08:10;26.42;;;14.85;;
57697;SDS011;43531;52.152;6.366;2023-02-13T04:08:42;27.80;;;17.02;;
57697;SDS011;43531;52.152;6.366;2023-02-13T04:09:14;28.65;;;17.60;;
57697;SDS011;43531;52.152;6.366;2023-02-13T04:09:47;29.70;;;16.52;;
57697;SDS011;43531;52.152;6.366;2023-02-13T04:10:19;25.85;;;15.48;;
57697;SDS011;43531;52.152;6.366;2023-02-13T04:10:57;32.05;;;17.63;;
57697;SDS011;43531;52.152;6.366;2023-02-13T04:13:17;30.52;;;15.05;;
57697;SDS011;43531;52.152;6.366;2023-02-13T04:14:24;26.15;;;14.98;;
57697;SDS011;43531;52.152;6.366;2023-02-13T04:15:18;25.05;;;14.95;;
57697;SDS011;43531;52.152;6.366;2023-02-13T04:15:56;25.02;;;14.57;;
57697;SDS011;43531;52.152;6.366;2023-02-13T04:17:11;20.27;;;12.32;;
57697;SDS011;43531;52.152;6.366;2023-02-13T04:17:51;23.48;;;14.30;;
57697;SDS011;43531;52.152;6.366;2023-02-13T04:18:26;25.88;;;15.55;;
57697;SDS011;43531;52.152;6.366;2023-02-13T04:19:00;24.73;;;15.15;;
57697;SDS011;43531;52.152;6.366;2023-02-13T04:19:32;27.83;;;16.45;;
57697;SDS011;43531;52.152;6.366;2023-02-13T04:20:04;32.22;;;16.30;;
57697;SDS011;43531;52.152;6.366;2023-02-13T04:20:37;30.85;;;16.42;;
57697;SDS011;43531;52.152;6.366;2023-02-13T04:21:09;26.95;;;15.68;;
57697;SDS011;43531;52.152;6.366;2023-02-13T04:21:41;32.50;;;18.10;;